Terminal Aerodrome Forecast
Issued by NWS Binghamton, NY

Home | Current Version | Previous Version | Text Only | Print | Product List | Glossary On
Versions: 1 2 3 4 5 6 7 8 9 10 11 12 13 14 15 16 17 18 19
000
FTUS41 KBGM 192326
TAFSYR
TAF
KSYR 192326Z 2000/2024 15006KT P6SM SCT250
     FM200800 22009KT P6SM SCT150 WS020/24040KT
     FM201300 25012KT P6SM FEW025 SCT040
     FM201700 25014KT P6SM SCT015 BKN030
     FM202000 26012KT 6SM -DZ SCT007 BKN012 OVC018=

USA.gov is the U.S. government's official web portal to all federal, state and local government web resources and services.